createdAt,value
2022-08-03T00:00:58.812Z,27.36
2022-08-03T00:03:00.520Z,27.37
2022-08-03T00:05:02.091Z,27.38
2022-08-03T00:07:03.642Z,27.37
2022-08-03T00:09:06.417Z,27.38
2022-08-03T00:11:09.354Z,27.37
2022-08-03T00:13:10.978Z,27.39
2022-08-03T00:15:16.605Z,27.39
2022-08-03T00:17:18.599Z,27.38
2022-08-03T00:19:20.309Z,27.37
2022-08-03T00:21:21.892Z,27.34
2022-08-03T00:23:23.486Z,27.33
2022-08-03T00:25:25.309Z,27.33
2022-08-03T00:27:28.284Z,27.33
2022-08-03T00:29:34.177Z,27.29
2022-08-03T00:31:59.446Z,27.26
2022-08-03T00:34:03.499Z,27.24
2022-08-03T00:36:05.963Z,27.16
2022-08-03T00:38:07.598Z,27.10
2022-08-03T00:40:11.747Z,27.02
2022-08-03T00:42:14.230Z,26.95
2022-08-03T00:44:17.281Z,26.89
2022-08-03T00:46:21.649Z,26.89
2022-08-03T00:48:33.416Z,26.89
2022-08-03T00:50:38.848Z,26.89
2022-08-03T00:52:40.528Z,26.94
2022-08-03T00:54:42.111Z,26.93
2022-08-03T00:57:00.131Z,26.86
2022-08-03T00:59:03.277Z,26.82
2022-08-03T01:01:06.332Z,26.79
2022-08-03T01:03:09.976Z,26.66
2022-08-03T01:05:11.564Z,26.60
2022-08-03T01:07:19.533Z,26.57
2022-08-03T01:09:37.272Z,26.57
2022-08-03T01:11:59.787Z,26.54
2022-08-03T01:14:18.820Z,26.54
2022-08-03T01:16:27.975Z,26.55
2022-08-03T01:18:44.906Z,26.55
2022-08-03T01:20:49.869Z,26.50
2022-08-03T01:23:13.711Z,26.48
2022-08-03T01:25:28.477Z,26.47
2022-08-03T01:27:44.677Z,26.48
2022-08-03T01:29:58.720Z,26.51
2022-08-03T01:32:58.564Z,26.46
2022-08-03T01:34:32.322Z,26.48
2022-08-03T01:36:37.971Z,26.43
2022-08-03T01:38:43.371Z,26.43
2022-08-03T01:40:47.325Z,26.42
2022-08-03T01:42:50.607Z,26.46
2022-08-03T01:44:55.102Z,26.44
2022-08-03T01:46:59.267Z,26.43
2022-08-03T01:49:09.412Z,26.47
2022-08-03T01:51:13.427Z,26.43
2022-08-03T01:53:16.663Z,26.37
2022-08-03T01:55:20.077Z,26.35
2022-08-03T01:57:23.747Z,26.31
2022-08-03T01:59:26.367Z,26.26
2022-08-03T02:02:28.663Z,26.22
2022-08-03T02:04:00.935Z,26.08
2022-08-03T02:07:00.729Z,25.99
2022-08-03T02:08:26.831Z,25.91
2022-08-03T02:10:34.303Z,25.86
2022-08-03T02:12:39.727Z,25.86
2022-08-03T02:14:43.262Z,25.86
2022-08-03T02:16:48.994Z,25.84
2022-08-03T02:18:51.510Z,25.85
2022-08-03T02:20:54.462Z,25.88
2022-08-03T02:22:56.022Z,25.85
2022-08-03T02:24:57.663Z,25.83
2022-08-03T02:27:01.076Z,25.88
2022-08-03T02:29:11.267Z,25.93
2022-08-03T02:31:15.596Z,25.94
2022-08-03T02:33:22.223Z,25.94
2022-08-03T02:35:26.525Z,25.90
2022-08-03T02:37:32.359Z,25.86
2022-08-03T02:39:35.706Z,25.88
2022-08-03T02:41:43.277Z,25.86
2022-08-03T02:44:05.973Z,25.90
2022-08-03T02:46:10.851Z,25.91
2022-08-03T02:48:17.268Z,25.92
2022-08-03T02:50:21.750Z,25.86
2022-08-03T02:52:27.942Z,25.83
2022-08-03T02:54:32.580Z,25.83
2022-08-03T02:56:34.676Z,25.81
2022-08-03T02:58:38.583Z,25.76
2022-08-03T03:00:43.867Z,25.72
2022-08-03T03:02:46.192Z,25.71
2022-08-03T03:05:53.088Z,25.69
2022-08-03T03:07:13.862Z,25.67
2022-08-03T03:09:17.380Z,25.65
2022-08-03T03:11:21.701Z,25.59
2022-08-03T03:13:24.505Z,25.58
2022-08-03T03:15:27.671Z,25.61
2022-08-03T03:17:31.650Z,25.57
2022-08-03T03:19:33.789Z,25.56
2022-08-03T03:21:37.492Z,25.57
2022-08-03T03:23:41.948Z,25.55
2022-08-03T03:25:43.707Z,25.52
2022-08-03T03:27:49.405Z,25.49
2022-08-03T03:29:51.735Z,25.44
2022-08-03T03:31:53.559Z,25.41
2022-08-03T03:33:57.401Z,25.44
2022-08-03T03:35:59.651Z,25.35
2022-08-03T03:38:01.275Z,25.32
2022-08-03T03:40:05.557Z,25.34
2022-08-03T03:42:07.314Z,25.35
2022-08-03T03:44:09.010Z,25.35
2022-08-03T03:46:12.831Z,25.31
2022-08-03T03:48:14.527Z,25.32
2022-08-03T03:50:18.383Z,25.35
2022-08-03T03:52:19.957Z,25.26
2022-08-03T03:54:21.714Z,25.23
2022-08-03T03:56:28.957Z,25.20
2022-08-03T03:58:32.491Z,25.20
2022-08-03T04:00:34.526Z,25.21
2022-08-03T04:02:36.501Z,25.20
2022-08-03T04:04:38.753Z,25.25
2022-08-03T04:06:40.349Z,25.29
2022-08-03T04:08:41.935Z,25.27
2022-08-03T04:10:54.344Z,25.27
2022-08-03T04:13:00.349Z,25.27
2022-08-03T04:15:04.454Z,25.28
2022-08-03T04:17:09.933Z,25.32
2022-08-03T04:19:18.547Z,25.33
2022-08-03T04:21:22.534Z,25.31
2022-08-03T04:23:27.652Z,25.32
2022-08-03T04:25:32.823Z,25.35
2022-08-03T04:27:38.149Z,25.35
2022-08-03T04:29:48.568Z,25.35
2022-08-03T04:31:51.432Z,25.32
2022-08-03T04:33:54.833Z,25.33
2022-08-03T04:36:02.695Z,25.32
2022-08-03T04:38:07.479Z,25.32
2022-08-03T04:40:13.327Z,25.39
2022-08-03T04:42:15.665Z,25.49
2022-08-03T04:44:19.498Z,25.53
2022-08-03T04:46:25.858Z,25.58
2022-08-03T04:48:28.329Z,25.80
2022-08-03T04:50:30.558Z,25.93
2022-08-03T04:52:32.980Z,26.07
2022-08-03T04:54:39.517Z,26.25
2022-08-03T04:56:41.379Z,26.46
2022-08-03T04:58:43.000Z,26.61
2022-08-03T05:00:44.547Z,26.64
2022-08-03T05:02:47.652Z,26.77
2022-08-03T05:04:49.731Z,26.89
2022-08-03T05:06:54.797Z,26.90
2022-08-03T05:08:57.077Z,26.97
2022-08-03T05:10:58.970Z,27.09
2022-08-03T05:13:00.963Z,27.19
2022-08-03T05:15:03.268Z,27.31
2022-08-03T05:17:05.035Z,27.38
2022-08-03T05:19:07.981Z,27.46
2022-08-03T05:21:09.871Z,27.50
2022-08-03T05:23:11.449Z,27.45
2022-08-03T05:25:16.937Z,27.37
2022-08-03T05:27:20.790Z,27.22
2022-08-03T05:29:22.374Z,27.28
2022-08-03T05:31:23.914Z,27.38
2022-08-03T05:33:25.668Z,27.48
2022-08-03T05:36:01.895Z,27.52
2022-08-03T05:37:54.765Z,27.38
2022-08-03T05:39:56.580Z,27.41
2022-08-03T05:41:58.176Z,27.45
2022-08-03T05:43:59.732Z,27.51
2022-08-03T05:46:12.492Z,27.57
2022-08-03T05:48:14.854Z,27.60
2022-08-03T05:50:17.252Z,27.59
2022-08-03T05:52:20.136Z,27.65
2022-08-03T05:54:21.845Z,27.66
2022-08-03T05:56:52.231Z,27.66
2022-08-03T05:58:53.836Z,27.69
2022-08-03T06:00:55.642Z,27.70
2022-08-03T06:02:57.224Z,27.70
2022-08-03T06:04:58.851Z,27.74
2022-08-03T06:07:00.422Z,27.76
2022-08-03T06:09:03.450Z,27.78
2022-08-03T06:11:05.079Z,27.81
2022-08-03T06:13:06.779Z,27.78
2022-08-03T06:15:11.405Z,27.75
2022-08-03T06:17:13.328Z,27.67
2022-08-03T06:19:16.792Z,27.69
2022-08-03T06:21:18.461Z,27.73
2022-08-03T06:23:20.435Z,27.75
2022-08-03T06:25:23.358Z,27.76
2022-08-03T06:27:31.407Z,27.67
2022-08-03T06:29:39.042Z,27.66
2022-08-03T06:31:40.667Z,27.60
2022-08-03T06:34:31.589Z,27.58
2022-08-03T06:36:04.499Z,27.75
2022-08-03T06:38:06.131Z,27.84
2022-08-03T06:40:08.771Z,27.97
2022-08-03T06:42:17.004Z,28.15
2022-08-03T06:44:18.818Z,28.29
2022-08-03T06:46:20.610Z,28.41
2022-08-03T06:48:22.192Z,28.52
2022-08-03T06:50:26.351Z,28.59
2022-08-03T06:52:37.682Z,28.63
2022-08-03T06:54:40.133Z,28.70
2022-08-03T06:56:41.762Z,28.78
2022-08-03T06:58:44.693Z,28.86
2022-08-03T07:00:46.359Z,28.92
2022-08-03T07:02:48.143Z,28.93
2022-08-03T07:04:54.182Z,28.90
2022-08-03T07:06:55.801Z,28.81
2022-08-03T07:08:59.596Z,28.79
2022-08-03T07:11:01.690Z,28.81
2022-08-03T07:13:03.620Z,28.88
2022-08-03T07:15:08.182Z,28.96
2022-08-03T07:17:21.843Z,29.02
2022-08-03T07:19:23.385Z,28.89
2022-08-03T07:21:25.007Z,28.86
2022-08-03T07:23:26.577Z,28.83
2022-08-03T07:25:28.257Z,28.96
2022-08-03T07:27:29.892Z,29.05
2022-08-03T07:29:31.499Z,29.11
2022-08-03T07:31:37.714Z,29.14
2022-08-03T07:33:39.364Z,29.21
2022-08-03T07:35:41.113Z,29.23
2022-08-03T07:37:42.688Z,29.31
2022-08-03T07:39:55.773Z,29.39
2022-08-03T07:41:57.385Z,29.36
2022-08-03T07:43:58.974Z,29.32
2022-08-03T07:46:02.904Z,29.39
2022-08-03T07:48:10.208Z,29.39
2022-08-03T07:50:13.939Z,29.35
2022-08-03T07:52:15.754Z,29.41
2022-08-03T07:54:17.481Z,29.42
2022-08-03T07:56:19.059Z,29.42
2022-08-03T07:58:24.197Z,29.43
2022-08-03T08:00:26.151Z,29.44
2022-08-03T08:02:27.824Z,29.52
2022-08-03T08:04:30.700Z,29.55
2022-08-03T08:06:32.301Z,29.58
2022-08-03T08:08:33.885Z,29.61
2022-08-03T08:10:35.810Z,29.63
2022-08-03T08:12:37.906Z,29.61
2022-08-03T08:14:39.490Z,29.62
2022-08-03T08:16:41.089Z,29.64
2022-08-03T08:18:42.729Z,29.67
2022-08-03T08:20:45.779Z,29.75
2022-08-03T08:22:47.464Z,29.75
2022-08-03T08:24:49.065Z,29.78
2022-08-03T08:26:52.784Z,29.76
2022-08-03T08:28:54.528Z,29.77
2022-08-03T08:30:56.132Z,29.71
2022-08-03T08:32:57.971Z,29.68
2022-08-03T08:34:59.808Z,29.72
2022-08-03T08:37:11.565Z,29.78
2022-08-03T08:39:13.254Z,29.81
2022-08-03T08:41:19.052Z,29.83
2022-08-03T08:43:20.663Z,29.83
2022-08-03T08:45:22.286Z,29.82
2022-08-03T08:47:26.084Z,29.90
2022-08-03T08:49:29.336Z,29.94
2022-08-03T08:51:54.725Z,29.96
2022-08-03T08:54:01.265Z,29.99
2022-08-03T08:56:04.858Z,29.96
2022-08-03T08:58:08.179Z,29.99
2022-08-03T09:00:12.169Z,30.01
2022-08-03T09:02:14.036Z,30.03
2022-08-03T09:04:15.831Z,30.04
2022-08-03T09:06:17.505Z,30.03
2022-08-03T09:08:19.187Z,30.04
2022-08-03T09:10:22.151Z,30.15
2022-08-03T09:12:42.269Z,30.19
2022-08-03T09:15:00.840Z,30.27
2022-08-03T09:17:05.932Z,30.28
2022-08-03T09:19:12.294Z,30.28
2022-08-03T09:21:30.597Z,30.26
2022-08-03T09:23:51.767Z,30.32
2022-08-03T09:26:04.270Z,30.35
2022-08-03T09:28:08.527Z,30.35
2022-08-03T09:30:33.378Z,30.36
2022-08-03T09:32:37.329Z,30.43
2022-08-03T09:34:39.179Z,30.37
2022-08-03T09:36:42.724Z,30.23
2022-08-03T09:39:01.418Z,30.22
2022-08-03T09:41:18.190Z,30.38
2022-08-03T09:43:20.906Z,30.45
2022-08-03T09:45:26.328Z,30.38
2022-08-03T09:47:29.353Z,30.33
2022-08-03T09:49:31.147Z,30.38
2022-08-03T09:52:32.823Z,30.44
2022-08-03T09:53:58.704Z,30.59
2022-08-03T09:56:34.812Z,30.67
2022-08-03T09:58:27.325Z,30.77
2022-08-03T10:00:28.938Z,30.81
2022-08-03T10:02:30.602Z,30.87
2022-08-03T10:04:32.404Z,30.87
2022-08-03T10:06:34.036Z,30.77
2022-08-03T10:08:35.661Z,30.64
2022-08-03T10:10:43.150Z,30.78
2022-08-03T10:12:46.097Z,30.96
2022-08-03T10:14:49.290Z,31.07
2022-08-03T10:16:50.909Z,31.13
2022-08-03T10:18:52.601Z,31.00
2022-08-03T10:20:59.089Z,31.21
2022-08-03T10:23:01.601Z,31.23
2022-08-03T10:25:06.433Z,31.21
2022-08-03T10:27:10.136Z,31.22
2022-08-03T10:29:17.953Z,31.29
2022-08-03T10:31:23.867Z,31.47
2022-08-03T10:33:51.887Z,31.45
2022-08-03T10:35:54.450Z,31.37
2022-08-03T10:37:59.096Z,31.41
2022-08-03T10:40:02.513Z,31.34
2022-08-03T10:42:05.580Z,31.48
2022-08-03T10:44:19.535Z,31.40
2022-08-03T10:46:22.485Z,31.49
2022-08-03T10:48:25.258Z,31.53
2022-08-03T10:50:27.272Z,31.45
2022-08-03T10:52:32.971Z,31.55
2022-08-03T10:54:42.149Z,31.48
2022-08-03T10:56:49.722Z,31.61
2022-08-03T10:58:57.493Z,31.61
2022-08-03T11:01:00.113Z,31.65
2022-08-03T11:03:08.311Z,31.58
2022-08-03T11:05:26.393Z,31.34
2022-08-03T11:07:27.967Z,31.27
2022-08-03T11:09:41.093Z,31.32
2022-08-03T11:11:43.788Z,31.38
2022-08-03T11:13:57.902Z,31.63
2022-08-03T11:16:06.548Z,31.81
2022-08-03T11:18:11.729Z,31.93
2022-08-03T11:20:13.599Z,31.97
2022-08-03T11:22:16.735Z,31.97
2022-08-03T11:24:51.596Z,32.07
2022-08-03T11:27:17.388Z,32.19
2022-08-03T11:29:30.041Z,32.21
2022-08-03T11:31:55.909Z,32.35
2022-08-03T11:34:08.737Z,32.48
2022-08-03T11:36:10.336Z,32.59
2022-08-03T11:38:12.172Z,32.50
2022-08-03T11:40:33.476Z,32.76
2022-08-03T11:42:42.146Z,32.85
2022-08-03T11:44:47.534Z,32.89
2022-08-03T11:46:49.655Z,32.85
2022-08-03T11:48:51.309Z,32.86
2022-08-03T11:50:54.572Z,32.88
2022-08-03T11:52:56.327Z,32.97
2022-08-03T11:54:58.088Z,33.16
2022-08-03T11:56:59.668Z,33.26
2022-08-03T11:59:20.507Z,33.32
2022-08-03T12:01:24.879Z,33.29
2022-08-03T12:03:35.259Z,33.33
2022-08-03T12:05:39.485Z,33.17
2022-08-03T12:08:03.128Z,33.14
2022-08-03T12:10:10.759Z,33.18
2022-08-03T12:12:16.408Z,32.99
2022-08-03T12:14:48.748Z,33.31
2022-08-03T12:16:40.810Z,33.77
2022-08-03T12:18:42.448Z,33.66
2022-08-03T12:20:44.980Z,33.84
2022-08-03T12:22:48.020Z,33.78
2022-08-03T12:24:49.650Z,33.63
2022-08-03T12:26:59.349Z,33.47
2022-08-03T12:29:01.807Z,33.65
2022-08-03T12:31:05.654Z,33.63
2022-08-03T12:33:15.416Z,34.48
2022-08-03T12:35:23.301Z,35.04
2022-08-03T12:37:25.933Z,35.16
2022-08-03T12:39:30.900Z,34.92
2022-08-03T12:41:34.623Z,34.72
2022-08-03T12:43:36.649Z,35.02
2022-08-03T12:45:41.451Z,35.43
2022-08-03T12:47:50.480Z,35.88
2022-08-03T12:49:53.558Z,36.05
2022-08-03T12:52:02.845Z,35.99
2022-08-03T12:54:09.456Z,36.47
2022-08-03T12:56:12.545Z,36.62
2022-08-03T12:58:29.695Z,37.33
2022-08-03T13:00:31.644Z,37.79
2022-08-03T13:02:33.933Z,38.08
2022-08-03T13:04:36.312Z,38.36
2022-08-03T13:06:37.872Z,38.47
2022-08-03T13:08:39.706Z,38.48
2022-08-03T13:10:41.503Z,38.85
2022-08-03T13:12:49.013Z,39.29
2022-08-03T13:14:52.318Z,39.57
2022-08-03T13:16:53.955Z,39.64
2022-08-03T13:18:55.571Z,39.78
2022-08-03T13:20:57.342Z,39.98
2022-08-03T13:23:00.925Z,40.36
2022-08-03T13:25:03.694Z,40.45
2022-08-03T13:27:22.108Z,40.80
2022-08-03T13:29:28.541Z,40.21
2022-08-03T13:31:30.294Z,40.46
2022-08-03T13:33:32.142Z,40.73
2022-08-03T13:35:33.846Z,40.39
2022-08-03T13:37:36.150Z,40.08
2022-08-03T13:39:57.265Z,40.57
2022-08-03T13:42:02.490Z,40.92
2022-08-03T13:44:26.612Z,41.09
2022-08-03T13:46:27.372Z,41.16
2022-08-03T13:48:36.198Z,41.42
2022-08-03T13:50:42.969Z,41.58
2022-08-03T13:52:45.050Z,41.85
2022-08-03T13:54:47.156Z,41.55
2022-08-03T13:56:49.070Z,41.27
2022-08-03T13:58:53.645Z,41.62
2022-08-03T14:00:55.543Z,41.57
2022-08-03T14:03:16.576Z,41.37
2022-08-03T14:05:18.291Z,40.74
2022-08-03T14:07:20.185Z,41.35
2022-08-03T14:09:22.310Z,41.53
2022-08-03T14:11:24.277Z,41.42
2022-08-03T14:13:45.904Z,41.13
2022-08-03T14:15:49.749Z,40.90
2022-08-03T14:17:52.926Z,40.33
2022-08-03T14:19:55.946Z,39.98
2022-08-03T14:22:06.109Z,39.41
2022-08-03T14:24:08.781Z,39.10
2022-08-03T14:26:10.987Z,39.23
2022-08-03T14:28:12.691Z,39.28
2022-08-03T14:30:14.501Z,39.15
2022-08-03T14:32:16.191Z,38.86
2022-08-03T14:34:17.891Z,38.71
2022-08-03T14:36:20.907Z,38.37
2022-08-03T14:38:22.989Z,38.52
2022-08-03T14:40:24.891Z,38.66
2022-08-03T14:42:26.583Z,38.60
2022-08-03T14:44:28.218Z,38.50
2022-08-03T14:46:30.625Z,38.26
2022-08-03T14:50:26.520Z,38.07
2022-08-03T14:50:54.481Z,37.62
2022-08-03T14:52:57.647Z,37.46
2022-08-03T14:54:59.921Z,37.37
2022-08-03T14:57:01.643Z,37.25
2022-08-03T14:59:03.273Z,37.23
2022-08-03T15:02:04.628Z,37.16
2022-08-03T15:03:26.768Z,37.11
2022-08-03T15:05:28.610Z,37.00
2022-08-03T15:07:30.540Z,36.94
2022-08-03T15:09:33.750Z,36.84
2022-08-03T15:11:35.506Z,36.82
2022-08-03T15:13:37.090Z,36.82
2022-08-03T15:15:38.763Z,36.78
2022-08-03T15:17:42.980Z,36.62
2022-08-03T15:20:26.513Z,36.41
2022-08-03T15:22:25.332Z,36.44
2022-08-03T15:24:37.883Z,36.42
2022-08-03T15:26:41.785Z,36.40
2022-08-03T15:28:43.714Z,36.32
2022-08-03T15:30:45.340Z,36.29
2022-08-03T15:32:47.319Z,36.28
2022-08-03T15:34:50.733Z,36.22
2022-08-03T15:36:52.625Z,36.11
2022-08-03T15:38:54.350Z,36.11
2022-08-03T15:40:57.829Z,36.11
2022-08-03T15:43:00.713Z,36.08
2022-08-03T15:45:02.370Z,36.08
2022-08-03T15:47:04.026Z,36.01
2022-08-03T15:49:05.659Z,36.02
2022-08-03T15:51:08.155Z,35.91
2022-08-03T15:53:09.753Z,35.93
2022-08-03T15:55:16.823Z,35.78
2022-08-03T15:57:20.576Z,35.62
2022-08-03T15:59:22.317Z,35.26
2022-08-03T16:01:24.789Z,35.19
2022-08-03T16:03:26.447Z,35.13
2022-08-03T16:05:28.294Z,35.16
2022-08-03T16:07:29.891Z,35.23
2022-08-03T16:09:43.200Z,35.32
2022-08-03T16:11:45.404Z,35.28
2022-08-03T16:14:13.655Z,35.05
2022-08-03T16:16:10.366Z,35.20
2022-08-03T16:18:11.972Z,35.32
2022-08-03T16:20:29.058Z,35.34
2022-08-03T16:22:41.598Z,35.30
2022-08-03T16:24:46.129Z,35.37
2022-08-03T16:26:47.777Z,35.42
2022-08-03T16:28:50.728Z,35.43
2022-08-03T16:30:52.364Z,35.44
2022-08-03T16:32:54.077Z,35.46
2022-08-03T16:34:55.707Z,35.45
2022-08-03T16:36:57.319Z,35.47
2022-08-03T16:38:59.487Z,35.48
2022-08-03T16:41:01.117Z,35.47
2022-08-03T16:43:10.500Z,35.46
2022-08-03T16:45:21.639Z,35.37
2022-08-03T16:47:23.347Z,35.39
2022-08-03T16:49:54.352Z,35.41
2022-08-03T16:51:50.327Z,35.40
2022-08-03T16:54:07.986Z,35.34
2022-08-03T16:56:13.906Z,35.38
2022-08-03T16:58:15.528Z,35.34
2022-08-03T17:00:34.235Z,35.33
2022-08-03T17:02:48.224Z,35.32
2022-08-03T17:04:50.676Z,35.32
2022-08-03T17:06:54.431Z,35.16
2022-08-03T17:08:56.234Z,35.09
2022-08-03T17:10:57.845Z,35.14
2022-08-03T17:13:01.181Z,35.14
2022-08-03T17:15:03.875Z,35.16
2022-08-03T17:17:16.322Z,35.18
2022-08-03T17:19:21.152Z,35.16
2022-08-03T17:21:29.524Z,35.16
2022-08-03T17:23:41.084Z,35.14
2022-08-03T17:26:02.439Z,35.08
2022-08-03T17:28:48.946Z,35.11
2022-08-03T17:30:27.918Z,35.04
2022-08-03T17:32:34.058Z,35.05
2022-08-03T17:34:38.421Z,35.06
2022-08-03T17:37:03.688Z,35.07
2022-08-03T17:39:03.975Z,35.05
2022-08-03T17:41:10.833Z,35.03
2022-08-03T17:44:16.669Z,35.00
2022-08-03T17:45:52.047Z,34.95
2022-08-03T17:47:57.089Z,34.94
2022-08-03T17:50:01.039Z,34.97
2022-08-03T17:52:05.513Z,34.97
2022-08-03T17:54:18.087Z,34.97
2022-08-03T17:56:42.649Z,34.95
2022-08-03T17:58:56.330Z,34.91
2022-08-03T18:00:59.675Z,34.89
2022-08-03T18:03:11.806Z,34.89
2022-08-03T18:05:17.844Z,34.84
2022-08-03T18:07:41.199Z,34.70
2022-08-03T18:10:04.944Z,34.67
2022-08-03T18:12:16.811Z,34.65
2022-08-03T18:14:27.452Z,34.56
2022-08-03T18:16:34.279Z,34.42
2022-08-03T18:18:39.163Z,34.41
2022-08-03T18:20:48.510Z,34.35
2022-08-03T18:22:50.260Z,34.32
2022-08-03T18:24:53.301Z,34.32
2022-08-03T18:26:58.025Z,34.29
2022-08-03T18:29:02.407Z,34.27
2022-08-03T18:31:06.001Z,34.27
2022-08-03T18:34:19.337Z,34.21
2022-08-03T18:35:52.929Z,34.18
2022-08-03T18:37:56.086Z,34.13
2022-08-03T18:40:07.374Z,34.08
2022-08-03T18:42:09.438Z,34.06
2022-08-03T18:44:53.027Z,33.99
2022-08-03T18:46:50.350Z,33.96
2022-08-03T18:48:59.967Z,33.93
2022-08-03T18:51:28.430Z,33.89
2022-08-03T18:54:02.865Z,33.86
2022-08-03T18:56:10.723Z,33.84
2022-08-03T18:58:19.128Z,33.81
2022-08-03T19:00:24.949Z,33.78
2022-08-03T19:02:48.846Z,33.78
2022-08-03T19:04:54.276Z,33.78
2022-08-03T19:07:01.041Z,33.77
2022-08-03T19:09:05.641Z,33.76
2022-08-03T19:11:17.394Z,33.76
2022-08-03T19:13:31.079Z,33.75
2022-08-03T19:15:41.661Z,33.72
2022-08-03T19:17:55.515Z,33.67
2022-08-03T19:20:02.565Z,33.62
2022-08-03T19:22:05.733Z,33.58
2022-08-03T19:24:13.860Z,33.55
2022-08-03T19:26:30.310Z,33.54
2022-08-03T19:28:34.328Z,33.53
2022-08-03T19:30:38.775Z,33.48
2022-08-03T19:32:48.199Z,33.47
2022-08-03T19:34:51.383Z,33.43
2022-08-03T19:36:55.294Z,33.40
2022-08-03T19:38:59.325Z,33.35
2022-08-03T19:41:03.737Z,33.29
2022-08-03T19:43:09.890Z,33.25
2022-08-03T19:45:17.097Z,33.22
2022-08-03T19:47:28.271Z,33.19
2022-08-03T19:52:02.824Z,33.13
2022-08-03T19:54:05.275Z,33.09
2022-08-03T19:56:08.837Z,33.07
2022-08-03T19:58:17.599Z,33.00
2022-08-03T20:00:32.679Z,33.00
2022-08-03T20:02:40.926Z,33.00
2022-08-03T20:04:44.376Z,32.96
2022-08-03T20:06:47.557Z,32.92
2022-08-03T20:08:52.135Z,32.86
2022-08-03T20:10:54.246Z,32.81
2022-08-03T20:12:58.026Z,32.77
2022-08-03T20:14:59.868Z,32.71
2022-08-03T20:17:03.123Z,32.67
2022-08-03T20:19:04.790Z,32.67
2022-08-03T20:21:16.938Z,32.64
2022-08-03T20:23:19.723Z,32.60
2022-08-03T20:25:38.006Z,32.56
2022-08-03T20:28:08.087Z,32.53
2022-08-03T20:30:09.855Z,32.47
2022-08-03T20:32:11.516Z,32.41
2022-08-03T20:34:13.169Z,32.36
2022-08-03T20:36:19.187Z,32.34
2022-08-03T20:38:27.330Z,32.30
2022-08-03T20:40:29.121Z,32.28
2022-08-03T20:42:30.988Z,32.26
2022-08-03T20:44:33.074Z,32.21
2022-08-03T20:46:53.455Z,32.18
2022-08-03T20:48:58.848Z,32.18
2022-08-03T20:51:00.940Z,32.16
2022-08-03T20:53:02.877Z,32.18
2022-08-03T20:57:33.072Z,32.16
2022-08-03T20:59:50.338Z,32.14
2022-08-03T21:01:54.753Z,32.14
2022-08-03T21:03:56.524Z,32.15
2022-08-03T21:06:01.602Z,32.14
2022-08-03T21:08:07.133Z,32.11
2022-08-03T21:10:12.026Z,32.11
2022-08-03T21:12:26.799Z,32.06
2022-08-03T21:13:03.004Z,33.17
2022-08-03T21:13:14.174Z,32.18
2022-08-03T21:14:38.989Z,31.97
2022-08-03T21:16:44.468Z,31.84
2022-08-03T21:18:50.797Z,31.83
2022-08-03T21:20:52.990Z,31.83
2022-08-03T21:22:56.451Z,31.80
2022-08-03T21:25:03.925Z,31.79
2022-08-03T21:27:06.350Z,31.75
2022-08-03T21:29:08.316Z,31.72
2022-08-03T21:31:10.902Z,31.67
2022-08-03T21:33:13.204Z,31.64
2022-08-03T21:35:16.723Z,31.62
2022-08-03T21:37:18.432Z,31.64
2022-08-03T21:39:20.139Z,31.63
2022-08-03T21:41:21.884Z,31.51
2022-08-03T21:43:23.770Z,31.37
2022-08-03T21:45:25.585Z,31.32
2022-08-03T21:47:27.448Z,31.29
2022-08-03T21:50:04.433Z,31.29
2022-08-03T21:51:57.730Z,31.26
2022-08-03T21:54:04.510Z,31.27
2022-08-03T21:56:08.242Z,31.29
2022-08-03T21:58:13.297Z,31.32
2022-08-03T22:00:17.824Z,31.32
2022-08-03T22:02:24.300Z,31.31
2022-08-03T22:04:50.817Z,31.30
2022-08-03T22:06:49.291Z,31.24
2022-08-03T22:08:52.632Z,31.14
2022-08-03T22:10:54.495Z,31.08
2022-08-03T22:12:56.116Z,31.08
2022-08-03T22:15:01.418Z,31.03
2022-08-03T22:17:06.289Z,30.95
2022-08-03T22:19:08.734Z,30.91
2022-08-03T22:21:12.357Z,30.93
2022-08-03T22:23:15.613Z,30.90
2022-08-03T22:25:23.692Z,30.85
2022-08-03T22:27:26.663Z,30.79
2022-08-03T22:29:28.951Z,30.75
2022-08-03T22:31:58.095Z,30.71
2022-08-03T22:33:54.505Z,30.71
2022-08-03T22:35:57.983Z,30.71
2022-08-03T22:38:03.769Z,30.70
2022-08-03T22:40:08.675Z,30.71
2022-08-03T22:42:12.554Z,30.68
2022-08-03T22:44:14.595Z,30.65
2022-08-03T22:46:20.758Z,30.59
2022-08-03T22:48:22.661Z,30.59
2022-08-03T22:50:32.842Z,30.59
2022-08-03T22:52:37.847Z,30.61
2022-08-03T22:54:40.243Z,30.62
2022-08-03T22:56:42.607Z,30.53
2022-08-03T22:58:45.562Z,30.48
2022-08-03T23:00:53.855Z,30.53
2022-08-03T23:02:58.386Z,30.52
2022-08-03T23:05:04.355Z,30.50
2022-08-03T23:07:08.058Z,30.44
2022-08-03T23:09:10.959Z,30.43
2022-08-03T23:11:15.268Z,30.28
2022-08-03T23:13:18.084Z,30.31
2022-08-03T23:15:23.682Z,30.34
2022-08-03T23:17:27.091Z,30.32
2022-08-03T23:19:30.241Z,30.32
2022-08-03T23:22:00.243Z,30.29
2022-08-03T23:23:59.226Z,30.27
2022-08-03T23:26:02.744Z,30.28
2022-08-03T23:28:06.167Z,30.26
2022-08-03T23:30:09.557Z,30.26
2022-08-03T23:32:13.253Z,30.22
2022-08-03T23:34:16.950Z,30.20
2022-08-03T23:36:30.494Z,30.15
2022-08-03T23:38:35.433Z,30.10
2022-08-03T23:40:37.190Z,29.99
2022-08-03T23:42:39.091Z,29.96
2022-08-03T23:44:42.772Z,29.91
2022-08-03T23:46:45.517Z,29.90
2022-08-03T23:48:48.630Z,29.91
2022-08-03T23:50:57.396Z,29.90
2022-08-03T23:53:07.419Z,29.82
2022-08-03T23:55:21.255Z,29.82
2022-08-03T23:57:32.479Z,29.79
2022-08-03T23:59:57.286Z,29.79
